Time;durP1;ratioP1;P1;durP2;ratioP2;P2;SDS_P1;SDS_P2;PMS_P1;PMS_P2;Temp;Humidity;BMP_temperature;BMP_pressure;BME280_temperature;BME280_humidity;BME280_pressure;Samples;Min_cycle;Max_cycle;Signal;HPM_P1;HPM_P2
2023/12/08 00:00:48;;;;;;;238.10;133.00;;;;;;;-1.19;100.00;99251.20;109555;1251;59121;-77
2023/12/08 00:03:30;;;;;;;240.10;132.60;;;;;;;-1.21;100.00;99248.62;109532;1250;67110;-77
2023/12/08 00:05:57;;;;;;;231.80;132.70;;;;;;;-1.24;100.00;99257.00;109309;1251;60087;-78
2023/12/08 00:08:24;;;;;;;229.40;126.30;;;;;;;-1.25;100.00;99261.04;109541;1251;64122;-77
2023/12/08 00:10:51;;;;;;;244.30;134.50;;;;;;;-1.25;100.00;99270.98;109564;1251;59249;-77
2023/12/08 00:13:17;;;;;;;245.10;130.00;;;;;;;-1.25;100.00;99272.73;109595;1251;59058;-77
2023/12/08 00:15:44;;;;;;;252.00;136.50;;;;;;;-1.26;100.00;99267.15;108766;1251;1002111;-78
2023/12/08 00:18:10;;;;;;;236.90;128.50;;;;;;;-1.24;100.00;99272.70;109570;1251;60726;-76
2023/12/08 00:20:37;;;;;;;241.00;131.60;;;;;;;-1.22;100.00;99281.57;109518;1251;65125;-77
2023/12/08 00:23:04;;;;;;;241.80;132.80;;;;;;;-1.19;100.00;99286.42;109267;1252;59021;-77
2023/12/08 00:25:31;;;;;;;236.10;130.20;;;;;;;-1.17;100.00;99285.67;109503;1252;59093;-78
2023/12/08 00:27:57;;;;;;;235.10;126.00;;;;;;;-1.17;100.00;99288.45;109570;1251;66935;-78
2023/12/08 00:30:25;;;;;;;234.60;126.90;;;;;;;-1.17;100.00;99295.09;109526;1251;70330;-78
2023/12/08 00:32:52;;;;;;;241.40;132.10;;;;;;;-1.17;100.00;99298.77;109549;1251;64178;-78
2023/12/08 00:35:18;;;;;;;243.50;131.90;;;;;;;-1.17;100.00;99299.29;109503;1251;58989;-78
2023/12/08 00:37:45;;;;;;;229.10;127.80;;;;;;;-1.14;100.00;99295.75;109565;1251;59020;-79
2023/12/08 00:40:12;;;;;;;222.70;126.90;;;;;;;-1.12;100.00;99292.74;109572;1251;65981;-79
2023/12/08 00:42:38;;;;;;;239.60;129.90;;;;;;;-1.11;100.00;99289.24;109345;1251;60753;-77
2023/12/08 00:45:05;;;;;;;224.40;125.70;;;;;;;-1.11;100.00;99283.14;109319;1251;64831;-77
2023/12/08 00:47:32;;;;;;;221.00;122.70;;;;;;;-1.12;100.00;99282.28;109559;1251;58959;-78
2023/12/08 00:49:58;;;;;;;226.80;126.50;;;;;;;-1.12;100.00;99283.34;109258;1251;60437;-77
2023/12/08 00:52:25;;;;;;;218.00;123.80;;;;;;;-1.13;100.00;99282.65;109547;1251;67074;-77
2023/12/08 00:54:51;;;;;;;225.50;125.60;;;;;;;-1.14;100.00;99282.83;108792;1251;1002825;-77
2023/12/08 00:57:18;;;;;;;223.10;123.50;;;;;;;-1.13;100.00;99280.56;109352;1251;64534;-78
2023/12/08 00:59:45;;;;;;;210.30;118.10;;;;;;;-1.14;100.00;99282.48;109515;1251;58974;-78
2023/12/08 01:02:11;;;;;;;218.10;121.50;;;;;;;-1.16;100.00;99282.70;109238;1251;59269;-78
2023/12/08 01:04:38;;;;;;;208.80;118.60;;;;;;;-1.16;100.00;99288.80;109603;1251;65897;-78
2023/12/08 01:07:04;;;;;;;211.80;119.80;;;;;;;-1.17;100.00;99286.89;109535;1251;60163;-78
2023/12/08 01:09:31;;;;;;;220.40;120.30;;;;;;;-1.16;100.00;99283.57;109508;1252;64008;-79
2023/12/08 01:11:57;;;;;;;215.00;117.70;;;;;;;-1.17;100.00;99282.70;109325;1251;59033;-78
2023/12/08 01:14:24;;;;;;;212.60;118.50;;;;;;;-1.18;100.00;99282.02;109554;1251;59016;-78
2023/12/08 01:16:50;;;;;;;208.20;119.20;;;;;;;-1.18;100.00;99280.13;109527;1251;67001;-79
2023/12/08 01:19:17;;;;;;;210.50;118.00;;;;;;;-1.19;100.00;99278.20;109583;1251;60252;-79
2023/12/08 01:21:44;;;;;;;213.00;118.10;;;;;;;-1.19;100.00;99274.02;109577;1251;64017;-78
2023/12/08 01:24:10;;;;;;;217.20;120.70;;;;;;;-1.19;100.00;99268.79;109518;1251;58964;-78
2023/12/08 01:26:42;;;;;;;216.20;121.50;;;;;;;-1.19;100.00;99268.80;109582;1251;59038;-78
2023/12/08 01:29:08;;;;;;;210.90;116.00;;;;;;;-1.21;100.00;99269.70;109601;1251;65972;-78
2023/12/08 01:31:35;;;;;;;211.10;119.50;;;;;;;-1.22;100.00;99271.27;109539;1251;60518;-79
2023/12/08 01:34:01;;;;;;;225.70;123.60;;;;;;;-1.22;100.00;99269.19;109552;1251;63974;-77
2023/12/08 01:36:28;;;;;;;224.10;122.10;;;;;;;-1.22;100.00;99267.27;109532;1251;59027;-78
2023/12/08 01:38:54;;;;;;;220.00;119.70;;;;;;;-1.22;100.00;99268.83;108566;1251;1002569;-78
2023/12/08 01:41:21;;;;;;;217.30;120.40;;;;;;;-1.23;100.00;99266.77;109536;1251;67073;-78
2023/12/08 01:43:48;;;;;;;212.00;119.50;;;;;;;-1.23;100.00;99265.20;109589;1251;59803;-78
2023/12/08 01:46:17;;;;;;;215.70;121.80;;;;;;;-1.23;100.00;99260.14;109491;1251;64871;-78
2023/12/08 01:48:45;;;;;;;217.40;123.30;;;;;;;-1.23;100.00;99255.95;109556;1250;58945;-79
2023/12/08 01:51:14;;;;;;;199.80;114.80;;;;;;;-1.21;100.00;99258.02;109553;1251;59026;-79
2023/12/08 01:53:41;;;;;;;207.30;116.00;;;;;;;-1.21;100.00;99260.10;109522;1251;66116;-79
2023/12/08 01:56:09;;;;;;;198.10;109.00;;;;;;;-1.21;100.00;99256.79;109556;1251;61074;-79
2023/12/08 01:58:36;;;;;;;197.60;112.70;;;;;;;-1.21;100.00;99253.66;109301;1251;65032;-79
2023/12/08 02:01:04;;;;;;;204.80;117.80;;;;;;;-1.22;100.00;99250.89;109338;1251;59105;-78
2023/12/08 02:03:35;;;;;;;224.40;125.40;;;;;;;-1.23;100.00;99251.60;109338;1251;58966;-79
2023/12/08 02:06:02;;;;;;;217.70;122.10;;;;;;;-1.23;100.00;99252.47;109563;1251;66130;-78
2023/12/08 02:08:29;;;;;;;218.90;120.70;;;;;;;-1.23;100.00;99248.29;109547;1251;60139;-78
2023/12/08 02:10:56;;;;;;;203.60;118.30;;;;;;;-1.24;100.00;99249.68;109552;1251;64304;-79
2023/12/08 02:13:23;;;;;;;225.00;123.90;;;;;;;-1.24;100.00;99248.83;109573;1251;58985;-78
2023/12/08 02:16:06;;;;;;;237.90;130.80;;;;;;;-1.25;100.00;99250.77;109555;1251;59068;-79
2023/12/08 02:18:34;;;;;;;220.50;124.00;;;;;;;-1.24;100.00;99246.89;109526;1251;66988;-79
2023/12/08 02:21:02;;;;;;;220.70;124.40;;;;;;;-1.23;100.00;99246.89;109538;1251;60027;-78
2023/12/08 02:23:29;;;;;;;213.00;119.90;;;;;;;-1.23;100.00;99248.28;109533;1250;65107;-78
2023/12/08 02:25:56;;;;;;;206.30;119.30;;;;;;;-1.25;100.00;99248.31;109310;1251;59451;-79
2023/12/08 02:28:22;;;;;;;213.30;117.90;;;;;;;-1.28;100.00;99248.37;109555;1251;58895;-78
2023/12/08 02:30:51;;;;;;;216.10;117.00;;;;;;;-1.33;100.00;99248.09;109567;1251;67172;-78
2023/12/08 02:33:26;;;;;;;211.10;118.70;;;;;;;-1.36;100.00;99244.64;109596;1251;60417;-78
2023/12/08 02:35:53;;;;;;;212.70;119.30;;;;;;;-1.37;100.00;99249.02;109540;1251;64025;-77
2023/12/08 02:38:23;;;;;;;209.00;118.80;;;;;;;-1.35;100.00;99248.63;109521;1251;59082;-78
2023/12/08 02:40:49;;;;;;;202.00;117.10;;;;;;;-1.33;100.00;99245.64;109532;1251;59025;-77
2023/12/08 02:43:16;;;;;;;208.50;120.00;;;;;;;-1.32;100.00;99244.41;109562;1251;67042;-77
2023/12/08 02:45:42;;;;;;;207.30;116.90;;;;;;;-1.33;100.00;99249.83;109570;1251;61133;-78
2023/12/08 02:48:09;;;;;;;202.00;112.20;;;;;;;-1.36;100.00;99253.37;109530;1251;65313;-78
2023/12/08 02:50:35;;;;;;;209.80;121.50;;;;;;;-1.39;100.00;99253.76;109481;1251;58977;-78
2023/12/08 02:53:02;;;;;;;208.70;120.10;;;;;;;-1.41;100.00;99253.95;109546;1251;59754;-78
2023/12/08 02:55:29;;;;;;;210.20;121.60;;;;;;;-1.41;100.00;99252.55;109554;1251;67003;-78
2023/12/08 02:57:55;;;;;;;203.40;116.40;;;;;;;-1.40;100.00;99256.90;109581;1251;61029;-77
2023/12/08 03:00:34;;;;;;;215.60;119.90;;;;;;;-1.41;100.00;99262.66;109537;1251;65079;-78
2023/12/08 03:03:01;;;;;;;215.90;115.50;;;;;;;-1.43;100.00;99264.95;109471;1251;58993;-78
2023/12/08 03:05:27;;;;;;;212.50;116.70;;;;;;;-1.45;100.00;99263.77;109502;1251;59374;-78
2023/12/08 03:07:54;;;;;;;205.50;118.20;;;;;;;-1.46;100.00;99264.65;109533;1251;65966;-78
2023/12/08 03:10:21;;;;;;;214.40;117.60;;;;;;;-1.45;100.00;99258.90;109509;1251;60918;-78
2023/12/08 03:12:47;;;;;;;207.00;118.20;;;;;;;-1.44;100.00;99256.27;109515;1251;64024;-78
2023/12/08 03:15:14;;;;;;;208.00;115.50;;;;;;;-1.43;100.00;99259.37;109497;1251;58972;-78
2023/12/08 03:17:40;;;;;;;198.10;112.00;;;;;;;-1.44;100.00;99261.50;109536;1251;58875;-78
2023/12/08 03:20:08;;;;;;;201.70;116.70;;;;;;;-1.46;100.00;99261.00;109538;1251;67028;-78
2023/12/08 03:22:34;;;;;;;207.50;118.50;;;;;;;-1.48;100.00;99260.33;109554;1251;60847;-78
2023/12/08 03:25:01;;;;;;;217.50;119.90;;;;;;;-1.47;100.00;99261.02;109554;1251;65315;-78
2023/12/08 03:27:28;;;;;;;213.30;119.50;;;;;;;-1.46;100.00;99258.73;109554;1251;59075;-78
2023/12/08 03:29:54;;;;;;;215.20;120.20;;;;;;;-1.46;100.00;99253.32;109567;1251;59032;-79
2023/12/08 03:32:21;;;;;;;211.70;121.30;;;;;;;-1.45;100.00;99258.04;109552;1251;66945;-77
2023/12/08 03:34:48;;;;;;;215.90;120.60;;;;;;;-1.44;100.00;99255.73;109584;1251;59997;-78
2023/12/08 03:37:14;;;;;;;213.40;117.10;;;;;;;-1.40;100.00;99257.26;109511;1251;65050;-76
2023/12/08 03:39:44;;;;;;;213.90;121.30;;;;;;;-1.37;100.00;99251.98;109529;1251;60555;-80
2023/12/08 03:42:11;;;;;;;209.00;113.30;;;;;;;-1.36;100.00;99248.99;109541;1251;58989;-79
2023/12/08 03:44:38;;;;;;;224.10;120.20;;;;;;;-1.36;100.00;99239.23;109563;1251;66948;-78
2023/12/08 03:47:05;;;;;;;217.70;120.10;;;;;;;-1.34;100.00;99240.60;109549;1251;61053;-78
2023/12/08 03:49:31;;;;;;;216.40;121.30;;;;;;;-1.33;100.00;99247.02;109577;1251;65391;-78
2023/12/08 03:51:58;;;;;;;217.00;122.90;;;;;;;-1.33;100.00;99245.48;109522;1251;58976;-78
2023/12/08 03:54:24;;;;;;;226.20;121.40;;;;;;;-1.34;100.00;99236.77;109565;1251;59149;-77
2023/12/08 03:56:51;;;;;;;213.80;118.00;;;;;;;-1.35;100.00;99233.11;108614;1251;1002449;-77
2023/12/08 03:59:18;;;;;;;220.70;122.90;;;;;;;-1.36;100.00;99227.39;109530;1251;61023;-78
2023/12/08 04:01:44;;;;;;;225.30;120.30;;;;;;;-1.37;100.00;99222.53;109527;1251;65401;-78
2023/12/08 04:04:12;;;;;;;215.60;120.60;;;;;;;-1.38;100.00;99222.03;109530;1251;59029;-79
2023/12/08 04:06:39;;;;;;;222.60;119.30;;;;;;;-1.40;100.00;99219.95;109531;1251;59380;-78
2023/12/08 04:09:06;;;;;;;215.10;116.30;;;;;;;-1.40;100.00;99215.95;109535;1251;66055;-78
2023/12/08 04:11:32;;;;;;;219.20;119.60;;;;;;;-1.40;100.00;99209.85;109564;1251;61248;-78
2023/12/08 04:13:59;;;;;;;220.30;115.60;;;;;;;-1.40;100.00;99207.06;109533;1251;65069;-79
2023/12/08 04:16:26;;;;;;;231.60;118.60;;;;;;;-1.41;100.00;99200.63;109334;1251;59075;-79
2023/12/08 04:18:52;;;;;;;242.10;123.60;;;;;;;-1.41;100.00;99196.63;109590;1251;59105;-80
2023/12/08 04:21:19;;;;;;;239.20;122.70;;;;;;;-1.42;100.00;99192.11;109575;1250;67397;-78
2023/12/08 04:23:46;;;;;;;237.50;120.80;;;;;;;-1.43;100.00;99187.59;109527;1251;61356;-76
2023/12/08 04:26:12;;;;;;;224.70;117.40;;;;;;;-1.44;100.00;99188.31;109565;1251;64076;-78
2023/12/08 04:28:39;;;;;;;234.50;118.20;;;;;;;-1.46;100.00;99192.87;109570;1251;58957;-78
2023/12/08 04:31:06;;;;;;;222.30;115.70;;;;;;;-1.47;100.00;99190.96;109534;1251;58903;-78
2023/12/08 04:33:32;;;;;;;241.60;119.00;;;;;;;-1.48;100.00;99186.63;109340;1256;67133;-78
2023/12/08 04:35:59;;;;;;;235.10;117.00;;;;;;;-1.49;100.00;99184.55;109571;1251;61201;-78
2023/12/08 04:38:25;;;;;;;229.30;115.70;;;;;;;-1.51;100.00;99183.17;109523;1251;65132;-79
2023/12/08 04:40:52;;;;;;;235.60;112.20;;;;;;;-1.54;100.00;99180.96;109519;1251;59029;-78
2023/12/08 04:43:19;;;;;;;214.50;108.90;;;;;;;-1.58;100.00;99171.27;109554;1251;59020;-78
2023/12/08 04:45:45;;;;;;;216.50;107.20;;;;;;;-1.61;100.00;99165.90;109332;1251;66840;-78
2023/12/08 04:48:12;;;;;;;217.30;106.20;;;;;;;-1.64;100.00;99167.17;109603;1251;61021;-78
2023/12/08 04:50:38;;;;;;;221.70;105.90;;;;;;;-1.66;100.00;99174.02;109318;1251;64132;-77
2023/12/08 04:53:05;;;;;;;217.90;104.40;;;;;;;-1.70;100.00;99178.23;109577;1251;58990;-77
2023/12/08 04:55:32;;;;;;;227.20;104.70;;;;;;;-1.73;100.00;99170.10;109545;1251;58967;-77
2023/12/08 04:57:58;;;;;;;212.70;99.40;;;;;;;-1.78;100.00;99175.03;109527;1251;65954;-78
2023/12/08 05:00:25;;;;;;;216.50;103.70;;;;;;;-1.82;100.00;99175.98;109566;1251;60314;-78
2023/12/08 05:02:51;;;;;;;226.30;101.70;;;;;;;-1.85;100.00;99173.59;109538;1251;63746;-78
2023/12/08 05:05:18;;;;;;;241.40;107.50;;;;;;;-1.88;100.00;99176.58;109521;1251;59331;-77
2023/12/08 05:07:44;;;;;;;227.70;100.10;;;;;;;-1.90;100.00;99176.08;109240;1251;59319;-78
2023/12/08 05:10:11;;;;;;;241.90;112.70;;;;;;;-1.92;100.00;99177.67;109597;1250;65963;-77
2023/12/08 05:12:38;;;;;;;245.90;115.90;;;;;;;-1.93;100.00;99180.14;109588;1251;60066;-77
2023/12/08 05:15:05;;;;;;;218.60;101.80;;;;;;;-1.95;100.00;99181.20;109539;1251;63986;-77
2023/12/08 05:17:31;;;;;;;264.30;119.80;;;;;;;-1.97;100.00;99184.70;109220;1251;59151;-77
2023/12/08 05:19:58;;;;;;;225.50;102.30;;;;;;;-1.99;100.00;99184.90;109555;1251;58985;-78
2023/12/08 05:22:25;;;;;;;210.10;97.00;;;;;;;-1.99;100.00;99185.95;109536;1251;67005;-79
2023/12/08 05:24:51;;;;;;;191.50;88.30;;;;;;;-2.00;100.00;99184.75;109535;1251;61079;-78
2023/12/08 05:27:18;;;;;;;218.30;94.80;;;;;;;-2.01;100.00;99185.97;109545;1251;65282;-79
2023/12/08 05:29:44;;;;;;;204.70;93.30;;;;;;;-2.01;100.00;99186.33;109551;1251;58978;-75
2023/12/08 05:32:11;;;;;;;194.80;87.00;;;;;;;-2.02;100.00;99180.77;109533;1251;59002;-79
2023/12/08 05:34:38;;;;;;;196.90;88.50;;;;;;;-2.03;100.00;99179.21;109579;1251;65963;-78
2023/12/08 05:37:04;;;;;;;203.30;91.60;;;;;;;-2.04;100.00;99182.71;109530;1251;60790;-78
2023/12/08 05:39:31;;;;;;;208.40;90.30;;;;;;;-2.06;100.00;99189.34;109544;1251;64036;-77
2023/12/08 05:41:58;;;;;;;192.20;83.20;;;;;;;-2.06;100.00;99195.96;109505;1251;59047;-78
2023/12/08 05:44:25;;;;;;;204.20;84.70;;;;;;;-2.07;100.00;99198.06;109587;1251;59101;-78
2023/12/08 05:46:52;;;;;;;185.60;82.80;;;;;;;-2.09;100.00;99196.35;109505;1251;67011;-78
2023/12/08 05:49:18;;;;;;;194.90;83.80;;;;;;;-2.10;100.00;99195.33;109541;1251;61064;-78
2023/12/08 05:51:45;;;;;;;185.40;75.80;;;;;;;-2.12;100.00;99188.91;109566;1251;65327;-78
2023/12/08 05:54:11;;;;;;;200.70;85.00;;;;;;;-2.15;100.00;99191.20;109229;1251;59092;-78
2023/12/08 05:56:39;;;;;;;178.80;79.10;;;;;;;-2.16;100.00;99186.35;109574;1251;58988;-79
2023/12/08 05:59:05;;;;;;;165.20;71.00;;;;;;;-2.17;100.00;99181.66;109532;1251;66010;-79
2023/12/08 06:01:32;;;;;;;193.60;80.00;;;;;;;-2.17;100.00;99179.91;109542;1251;60047;-78
2023/12/08 06:03:58;;;;;;;185.60;78.10;;;;;;;-2.16;100.00;99179.38;109334;1251;63993;-79
2023/12/08 06:06:27;;;;;;;165.50;72.40;;;;;;;-2.15;100.00;99183.73;109545;1250;58955;-78
2023/12/08 06:08:55;;;;;;;189.80;78.70;;;;;;;-2.15;100.00;99180.77;108847;1251;1003099;-78
2023/12/08 06:11:22;;;;;;;177.50;79.00;;;;;;;-2.16;100.00;99177.98;109167;1251;67103;-76
2023/12/08 06:13:49;;;;;;;180.70;81.60;;;;;;;-2.17;100.00;99179.21;109562;1251;60870;-77
2023/12/08 06:16:15;;;;;;;187.10;79.20;;;;;;;-2.16;100.00;99182.86;109548;1251;64035;-76
2023/12/08 06:18:42;;;;;;;176.10;78.70;;;;;;;-2.16;100.00;99181.30;108810;1251;1002377;-78
2023/12/08 06:21:09;;;;;;;186.60;83.30;;;;;;;-2.15;100.00;99180.23;109334;1251;59084;-78
2023/12/08 06:23:35;;;;;;;183.40;78.90;;;;;;;-2.13;100.00;99176.02;109546;1251;67238;-76
2023/12/08 06:26:02;;;;;;;203.10;81.70;;;;;;;-2.09;100.00;99171.98;109600;1251;61286;-78
2023/12/08 06:28:29;;;;;;;182.90;80.60;;;;;;;-2.07;100.00;99171.60;109598;1251;64973;-78
2023/12/08 06:30:55;;;;;;;164.40;72.40;;;;;;;-2.05;100.00;99174.02;109510;1251;59039;-80
2023/12/08 06:33:22;;;;;;;174.70;74.10;;;;;;;-2.06;100.00;99176.83;109378;1251;59111;-79
2023/12/08 06:35:49;;;;;;;173.10;77.40;;;;;;;-2.07;100.00;99176.83;109552;1251;66853;-78
2023/12/08 06:38:16;;;;;;;167.70;77.60;;;;;;;-2.07;100.00;99173.52;109532;1251;61027;-78
2023/12/08 06:40:42;;;;;;;175.20;74.90;;;;;;;-2.07;100.00;99168.12;109523;1251;63781;-77
2023/12/08 06:43:09;;;;;;;189.00;80.00;;;;;;;-2.05;100.00;99172.80;109572;1251;58973;-78
2023/12/08 06:45:36;;;;;;;169.00;74.60;;;;;;;-2.04;100.00;99176.27;109568;1251;58979;-77
2023/12/08 06:48:03;;;;;;;146.60;65.40;;;;;;;-2.05;100.00;99179.06;109541;1250;67031;-78
2023/12/08 06:50:30;;;;;;;171.80;73.60;;;;;;;-2.07;100.00;99181.19;109552;1251;60211;-78
2023/12/08 06:52:57;;;;;;;161.60;72.10;;;;;;;-2.10;100.00;99184.70;109565;1253;64797;-78
2023/12/08 06:55:23;;;;;;;158.50;72.40;;;;;;;-2.12;100.00;99185.25;109519;1251;58944;-78
2023/12/08 06:57:50;;;;;;;170.60;71.60;;;;;;;-2.13;100.00;99185.95;109525;1251;59128;-75
2023/12/08 07:00:17;;;;;;;153.10;73.10;;;;;;;-2.15;100.00;99187.55;109251;1251;65775;-79
2023/12/08 07:02:47;;;;;;;160.90;72.10;;;;;;;-2.18;100.00;99188.64;109515;1251;61407;-81
2023/12/08 07:05:19;;;;;;;162.60;69.30;;;;;;;-2.17;100.00;99196.97;109554;1251;64039;-81
2023/12/08 07:07:47;;;;;;;161.70;66.40;;;;;;;-2.16;100.00;99197.48;109495;1251;59190;-79
2023/12/08 07:10:15;;;;;;;150.80;66.50;;;;;;;-2.21;100.00;99199.80;108782;1251;1002884;-79
2023/12/08 07:12:42;;;;;;;155.10;67.80;;;;;;;-2.28;100.00;99206.84;109370;1251;66929;-77
2023/12/08 07:15:09;;;;;;;154.50;65.10;;;;;;;-2.31;100.00;99212.27;109474;1251;61261;-79
2023/12/08 07:17:37;;;;;;;160.50;69.40;;;;;;;-2.33;100.00;99214.22;109340;1251;64054;-80
2023/12/08 07:20:06;;;;;;;149.30;64.90;;;;;;;-2.32;100.00;99214.02;109486;1251;58950;-83
2023/12/08 07:22:32;;;;;;;148.80;68.60;;;;;;;-2.30;100.00;99214.18;108646;1251;1002455;-83
2023/12/08 07:24:59;;;;;;;143.90;66.60;;;;;;;-2.27;100.00;99216.58;109564;1251;67624;-82
2023/12/08 07:27:26;;;;;;;144.10;67.80;;;;;;;-2.18;100.00;99219.61;109596;1251;59724;-86
2023/12/08 07:29:52;;;;;;;142.50;67.00;;;;;;;-2.14;100.00;99223.05;109368;1251;62814;-82
2023/12/08 07:32:19;;;;;;;154.00;65.10;;;;;;;-2.14;100.00;99224.61;109559;1251;58947;-81
2023/12/08 07:34:45;;;;;;;135.00;62.30;;;;;;;-2.13;100.00;99222.33;109332;1251;59001;-81
2023/12/08 07:37:12;;;;;;;147.90;64.40;;;;;;;-2.13;100.00;99225.13;109565;1250;66127;-80
2023/12/08 07:39:39;;;;;;;128.70;62.80;;;;;;;-2.13;100.00;99227.56;109595;1250;59248;-80
2023/12/08 07:42:06;;;;;;;144.80;67.00;;;;;;;-2.13;100.00;99224.08;109624;1251;64137;-80
2023/12/08 07:44:34;;;;;;;139.90;63.40;;;;;;;-2.10;100.00;99227.86;109510;1251;58925;-80
2023/12/08 07:47:01;;;;;;;120.70;60.00;;;;;;;-2.06;100.00;99222.24;109585;1251;59151;-80
2023/12/08 07:49:28;;;;;;;130.90;61.80;;;;;;;-2.00;100.00;99210.68;109545;1251;66028;-81
2023/12/08 07:51:54;;;;;;;141.80;65.90;;;;;;;-1.95;100.00;99208.88;109560;1251;60107;-81
2023/12/08 07:54:21;;;;;;;135.90;65.90;;;;;;;-1.86;100.00;99205.28;109560;1251;65345;-80
2023/12/08 07:56:48;;;;;;;136.50;64.00;;;;;;;-1.77;100.00;99202.20;109533;1251;58965;-80
2023/12/08 07:59:14;;;;;;;147.90;76.50;;;;;;;-1.73;100.00;99199.88;108797;1251;1002404;-81
2023/12/08 08:01:41;;;;;;;136.50;68.60;;;;;;;-1.68;100.00;99197.38;109604;1251;66315;-79
2023/12/08 08:04:08;;;;;;;138.90;67.60;;;;;;;-1.62;100.00;99198.69;109620;1251;60104;-80
2023/12/08 08:06:34;;;;;;;117.30;61.80;;;;;;;-1.59;100.00;99207.86;109600;1251;65060;-79
2023/12/08 08:09:01;;;;;;;114.60;58.80;;;;;;;-1.59;100.00;99207.16;109589;1251;59007;-80
2023/12/08 08:11:27;;;;;;;112.30;56.70;;;;;;;-1.61;100.00;99208.23;109468;1251;58946;-81
2023/12/08 08:13:54;;;;;;;118.70;60.80;;;;;;;-1.62;100.00;99205.13;109624;1251;65999;-80
2023/12/08 08:16:20;;;;;;;120.50;58.80;;;;;;;-1.59;100.00;99198.80;109618;1251;60073;-81
2023/12/08 08:18:47;;;;;;;116.10;63.20;;;;;;;-1.47;100.00;99198.46;109664;1251;65086;-81
2023/12/08 08:21:14;;;;;;;114.00;63.10;;;;;;;-1.36;100.00;99202.13;109565;1251;58952;-81
2023/12/08 08:23:41;;;;;;;124.90;61.50;;;;;;;-1.23;100.00;99206.79;109632;1251;58860;-81
2023/12/08 08:26:07;;;;;;;107.10;57.50;;;;;;;-1.16;100.00;99204.94;109711;1251;66842;-81
2023/12/08 08:28:34;;;;;;;113.40;59.20;;;;;;;-1.17;100.00;99203.58;109645;1251;61081;-81
2023/12/08 08:31:00;;;;;;;104.00;55.20;;;;;;;-1.18;100.00;99201.66;109319;1251;65090;-81
2023/12/08 08:33:27;;;;;;;108.40;57.80;;;;;;;-1.20;100.00;99201.00;109283;1251;59056;-81
2023/12/08 08:35:54;;;;;;;107.70;57.40;;;;;;;-1.20;100.00;99199.61;109595;1251;58880;-80
2023/12/08 08:38:20;;;;;;;141.60;81.30;;;;;;;-1.15;100.00;99201.60;109586;1251;66111;-80
2023/12/08 08:40:47;;;;;;;132.40;80.20;;;;;;;-1.04;100.00;99202.81;109684;1251;61440;-80
2023/12/08 08:43:14;;;;;;;143.90;92.00;;;;;;;-0.94;100.00;99202.33;109654;1251;65084;-80
2023/12/08 08:45:41;;;;;;;112.20;62.70;;;;;;;-0.86;100.00;99202.55;109629;1251;59226;-80
2023/12/08 08:48:07;;;;;;;118.60;66.90;;;;;;;-0.86;100.00;99203.23;109638;1251;59071;-80
2023/12/08 08:50:34;;;;;;;104.50;62.00;;;;;;;-0.82;100.00;99209.09;109666;1251;67013;-81
2023/12/08 08:53:00;;;;;;;103.90;57.50;;;;;;;-0.79;100.00;99211.12;109621;1250;61071;-81
2023/12/08 08:55:27;;;;;;;101.30;54.00;;;;;;;-0.73;100.00;99209.97;109590;1251;63494;-81
2023/12/08 08:57:55;;;;;;;96.30;53.70;;;;;;;-0.69;100.00;99200.29;109554;1251;59012;-80
2023/12/08 09:00:25;;;;;;;97.40;54.80;;;;;;;-0.61;100.00;99200.85;109635;1251;59116;-80
2023/12/08 09:02:52;;;;;;;;;;;;;;;-0.56;100.00;99200.23;109567;1251;66738;-80
2023/12/08 09:05:19;;;;;;;91.80;51.20;;;;;;;-0.47;100.00;99203.02;109615;1250;60043;-81
2023/12/08 09:07:46;;;;;;;98.00;53.20;;;;;;;-0.42;100.00;99200.16;109585;1251;64004;-81
2023/12/08 09:10:13;;;;;;;102.80;54.70;;;;;;;-0.42;100.00;99193.36;109588;1251;59010;-82
2023/12/08 09:12:39;;;;;;;93.90;52.20;;;;;;;-0.45;100.00;99183.11;109588;1251;58902;-79
2023/12/08 09:15:06;;;;;;;95.00;52.20;;;;;;;-0.44;100.00;99173.84;109541;1250;67028;-82
2023/12/08 09:17:33;;;;;;;94.10;52.30;;;;;;;-0.44;100.00;99163.55;109607;1250;59814;-81
2023/12/08 09:19:59;;;;;;;95.70;55.50;;;;;;;-0.46;100.00;99162.34;109577;1251;65069;-80
2023/12/08 09:22:26;;;;;;;95.90;55.50;;;;;;;-0.50;100.00;99156.84;109607;1251;59072;-81
2023/12/08 09:24:53;;;;;;;101.50;54.70;;;;;;;-0.51;100.00;99154.41;109585;1251;58866;-80
2023/12/08 09:27:19;;;;;;;104.00;56.90;;;;;;;-0.49;100.00;99146.16;109544;1251;67074;-80
2023/12/08 09:29:46;;;;;;;90.00;52.50;;;;;;;-0.47;100.00;99140.90;109578;1251;61089;-81
2023/12/08 09:32:12;;;;;;;93.10;51.70;;;;;;;-0.45;100.00;99140.33;109542;1251;65055;-81
2023/12/08 09:34:39;;;;;;;91.60;51.80;;;;;;;-0.40;100.00;99140.59;109591;1251;59215;-81
2023/12/08 09:37:05;;;;;;;89.80;53.80;;;;;;;-0.38;100.00;99146.66;109560;1251;58927;-80
2023/12/08 09:39:32;;;;;;;92.40;52.10;;;;;;;-0.41;100.00;99148.98;109617;1251;64951;-80
2023/12/08 09:42:06;;;;;;;89.00;52.70;;;;;;;-0.43;100.00;99151.81;109580;1250;60045;-81
2023/12/08 09:44:33;;;;;;;84.80;51.40;;;;;;;-0.42;100.00;99151.28;109257;1251;65064;-81
2023/12/08 09:47:03;;;;;;;94.80;55.20;;;;;;;-0.41;100.00;99148.82;109533;1251;59060;-81
2023/12/08 09:49:38;;;;;;;86.30;51.00;;;;;;;-0.42;100.00;99140.98;109601;1251;59009;-80
2023/12/08 09:52:04;;;;;;;85.70;49.20;;;;;;;-0.41;100.00;99140.80;109583;1250;65890;-81
2023/12/08 09:54:31;;;;;;;85.90;50.90;;;;;;;-0.38;100.00;99149.45;109606;1250;60995;-81
2023/12/08 09:57:00;;;;;;;85.90;50.10;;;;;;;-0.31;100.00;99150.01;109549;1251;65333;-80
2023/12/08 09:59:28;;;;;;;85.10;50.90;;;;;;;-0.25;100.00;99154.23;109543;1251;59021;-80
2023/12/08 10:01:55;;;;;;;88.60;50.90;;;;;;;-0.19;100.00;99157.63;109560;1251;58952;-80
2023/12/08 10:04:26;;;;;;;88.00;50.10;;;;;;;-0.15;100.00;99158.77;109586;1251;67246;-80
2023/12/08 10:06:56;;;;;;;88.80;51.30;;;;;;;-0.10;100.00;99149.74;109645;1251;60175;-80
2023/12/08 10:09:22;;;;;;;99.70;60.00;;;;;;;-0.09;100.00;99146.23;109543;1251;65398;-80
2023/12/08 10:11:50;;;;;;;82.30;49.60;;;;;;;-0.09;100.00;99147.45;109562;1251;59092;-80
2023/12/08 10:14:19;;;;;;;77.60;46.90;;;;;;;-0.06;100.00;99147.39;109577;1251;59025;-80
2023/12/08 10:16:46;;;;;;;93.70;57.20;;;;;;;-0.03;100.00;99149.95;109587;1251;65248;-80
2023/12/08 10:19:13;;;;;;;106.70;74.00;;;;;;;0.06;100.00;99149.77;109627;1251;60304;-80
2023/12/08 10:21:39;;;;;;;82.50;56.20;;;;;;;0.18;100.00;99147.57;109581;1251;64202;-80
2023/12/08 10:24:08;;;;;;;74.10;47.70;;;;;;;0.29;100.00;99141.21;109593;1251;59074;-81
2023/12/08 10:26:34;;;;;;;67.20;41.80;;;;;;;0.38;100.00;99143.95;109610;1251;59109;-75
2023/12/08 10:29:01;;;;;;;67.30;41.20;;;;;;;0.43;100.00;99144.01;109291;1250;66129;-75
2023/12/08 10:31:28;;;;;;;67.20;39.20;;;;;;;0.43;100.00;99142.98;109628;1251;60986;-76
2023/12/08 10:33:55;;;;;;;67.80;41.80;;;;;;;0.38;100.00;99139.77;109547;1251;65207;-75
2023/12/08 10:36:22;;;;;;;67.70;41.00;;;;;;;0.40;100.00;99140.23;109550;1251;58983;-75
2023/12/08 10:38:49;;;;;;;72.00;43.10;;;;;;;0.42;100.00;99136.70;109361;1251;59064;-75
2023/12/08 10:41:16;;;;;;;69.00;42.70;;;;;;;0.45;100.00;99128.23;109580;1250;65923;-74
2023/12/08 10:43:45;;;;;;;67.90;40.50;;;;;;;0.49;100.00;99125.17;109622;1251;61414;-75
2023/12/08 10:46:12;;;;;;;71.80;41.80;;;;;;;0.54;100.00;99122.94;109575;1251;65041;-75
2023/12/08 10:48:39;;;;;;;73.00;43.40;;;;;;;0.56;100.00;99124.12;109550;1251;58924;-74
2023/12/08 10:51:13;;;;;;;69.20;42.60;;;;;;;0.60;100.00;99121.40;109600;1251;58867;-74